Weather

DAILY 7 DAY TOTAL
onrain

Note: Some stations are located near irrigated fields and may also report irrigation

Alliston Mount Forest Blyth Guelph Grand Bend Strathroy Woodstock Belmont Simcoe Leamington Chatham West Lorne






West Lorne - Historical Weather Data
Date Max Temp (°C) Min Temp (°C) Avg Temp (°C) Rain (mm) 7Day Rain(mm) Total Rain(mm) Avg RH (%)
6/21/2024 32.8 18.2 25.0 0.4 18.6 143.4 90.1
6/20/2024 30.4 19.7 23.7 3.4 18.2 143.0 96.0
6/19/2024 34.3 20.5 27.4 14.8 14.8 139.6 81.4
6/18/2024 32.7 22.9 26.6 0.0 0.0 124.8 83.4
6/17/2024 33.0 18.3 25.4 0.0 0.0 124.8 77.9
6/16/2024 26.8 11.0 19.7 0.0 0.0 124.8 77.6
6/15/2024 25.2 9.4 17.5 0.0 2.2 124.8 74.3
6/14/2024 26.0 12.2 20.5 0.0 12.2 124.8 73.0
6/13/2024 30.7 19.8 25.0 0.0 13.0 124.8 66.1
6/12/2024 26.3 12.1 19.5 0.0 13.2 124.8 77.2
6/11/2024 22.2 6.1 14.5 0.0 23.2 124.8 79.3
6/10/2024 16.7 7.9 12.2 0.0 23.2 124.8 86.9
6/9/2024 21.8 10.2 15.0 2.2 23.2 124.8 92.2
6/8/2024 24.4 11.6 16.7 10.0 42.6 122.6 81.3
6/7/2024 20.1 14.0 16.9 0.8 32.6 112.6 80.7
6/6/2024 24.9 17.2 20.5 0.2 31.8 111.8 80.0
6/5/2024 25.9 18.0 21.3 10.0 31.6 111.6 94.2
6/4/2024 28.1 14.6 21.6 0.0 23.6 101.6 86.4
6/3/2024 23.6 13.0 17.3 0.0 27.2 101.6 95.2
6/2/2024 19.9 14.9 17.2 21.6 37.0 101.6 98.5
6/1/2024 24.1 8.7 17.2 0.0 37.2 80.0 74.9
5/31/2024 20.9 3.8 13.6 0.0 44.6 80.0 76.7
5/30/2024 20.7 4.6 12.7 0.0 44.6 80.0 75.6
5/29/2024 20.1 7.0 13.6 2.0 44.6 80.0 88.3
5/28/2024 18.7 13.6 15.3 3.6 42.6 78.0 98.1
5/27/2024 23.0 15.0 17.7 9.8 40.0 74.4 96.5
5/26/2024 24.3 11.5 18.3 21.8 33.4 64.6 82.2
5/25/2024 22.3 14.1 18.4 7.4 11.6 42.8 93.9
5/24/2024 28.4 10.2 19.5 0.0 4.2 35.4 68.5
5/23/2024 26.7 12.8 20.4 0.0 9.0 35.4 62.2
5/22/2024 27.6 20.2 24.1 0.0 9.0 35.4 75.8
5/21/2024 30.3 17.4 23.4 1.0 9.2 35.4 81.9
5/20/2024 29.1 13.5 20.6 3.2 9.0 34.4 84.2
5/19/2024 24.9 10.3 17.8 0.0 7.2 31.2 89.1
5/18/2024 22.3 14.0 17.4 0.0 7.2 31.2 95.7
5/17/2024 19.0 13.7 16.1 4.8 17.8 31.2 100.0
5/16/2024 22.6 8.9 16.2 0.0 13.0 26.4 89.3
5/15/2024 23.4 11.0 15.9 0.2 13.4 26.4 89.7
5/14/2024 25.8 11.4 17.5 0.8 13.6 26.2 86.9
5/13/2024 26.7 11.5 18.6 1.4 15.4 25.4 73.5
5/12/2024 17.0 7.9 11.6 0.0 14.0 24.0 89.5
5/11/2024 13.1 8.6 10.2 10.6 14.0 24.0 95.8
5/10/2024 19.2 7.5 13.4 0.0 3.4 13.4 78.0
5/9/2024 16.4 7.5 11.7 0.4 13.4 13.4 90.0
5/8/2024 23.5 9.7 16.4 0.4 13.0 13.0 82.5
5/7/2024 21.2 5.3 13.6 2.6 12.6 12.6 73.2
5/6/2024 21.8 7.0 13.6 0.0 19.0 10.0 72.4
5/5/2024 23.5 8.5 14.6 0.0 31.6 10.0 91.8
5/4/2024 23.5 10.7 16.1 0.0 43.8 10.0 94.3
5/3/2024 17.8 11.1 14.6 10.0 51.6 10.0 95.3
5/2/2024 20.5 7.1 14.5 0.0 41.6 0.0 80.5
5/1/2024 24.6 6.2 15.1 0.0 41.6 0.0 81.7